Time;durP1;ratioP1;P1;durP2;ratioP2;P2;SDS_P1;SDS_P2;PMS_P1;PMS_P2;Temp;Humidity;BMP_temperature;BMP_pressure;BME280_temperature;BME280_humidity;BME280_pressure;Samples;Min_cycle;Max_cycle;Signal;HPM_P1;HPM_P2
2022/01/06 00:00:24;;;;;;;24.27;4.03;;;5.30;99.90;;;;;;4972135;28;20038;-64
2022/01/06 00:02:50;;;;;;;15.85;3.60;;;5.30;99.90;;;;;;4943437;28;20057;-63
2022/01/06 00:05:15;;;;;;;27.10;4.35;;;5.30;99.90;;;;;;4973913;28;20046;-63
2022/01/06 00:07:41;;;;;;;17.98;3.28;;;5.40;99.90;;;;;;4968188;28;20547;-63
2022/01/06 00:10:11;;;;;;;17.23;3.65;;;5.30;99.90;;;;;;4956135;28;21097;-62
2022/01/06 00:12:45;;;;;;;17.52;3.33;;;5.30;99.90;;;;;;4956586;28;20125;-63
2022/01/06 00:15:37;;;;;;;24.13;4.82;;;5.30;99.90;;;;;;4958569;28;20161;-63
2022/01/06 00:25:54;;;;;;;19.48;3.53;;;5.30;99.90;;;;;;4955567;28;20054;-66
2022/01/06 00:28:20;;;;;;;23.10;4.38;;;5.30;99.90;;;;;;4972051;28;20069;-64
2022/01/06 00:30:46;;;;;;;19.38;3.63;;;5.30;99.90;;;;;;4950963;28;20596;-64
2022/01/06 00:33:12;;;;;;;26.38;3.33;;;5.30;99.90;;;;;;4968578;28;20043;-65
2022/01/06 00:35:38;;;;;;;15.70;3.08;;;5.30;99.90;;;;;;4969549;28;20050;-64
2022/01/06 00:38:07;;;;;;;19.90;3.38;;;5.30;99.90;;;;;;4955198;28;20042;-63
2022/01/06 00:40:37;;;;;;;29.17;5.32;;;5.20;99.90;;;;;;4969653;28;20038;-62
2022/01/06 00:43:04;;;;;;;22.25;3.25;;;5.20;99.90;;;;;;4949145;28;20485;-63
2022/01/06 00:45:31;;;;;;;19.02;3.58;;;5.20;99.90;;;;;;4970490;28;20038;-65
2022/01/06 00:47:57;;;;;;;14.98;2.80;;;5.20;99.90;;;;;;4963380;28;20053;-64
2022/01/06 00:50:23;;;;;;;17.48;3.30;;;5.20;99.90;;;;;;4960822;28;20485;-64
2022/01/06 00:52:49;;;;;;;20.90;3.38;;;5.10;99.90;;;;;;4956092;28;21446;-62
2022/01/06 00:55:15;;;;;;;21.10;3.38;;;5.20;99.90;;;;;;4968226;28;20097;-63
2022/01/06 00:57:41;;;;;;;15.13;2.58;;;5.10;99.90;;;;;;4979957;28;20045;-63
2022/01/06 01:00:08;;;;;;;13.38;3.05;;;5.10;99.90;;;;;;4957755;28;20102;-63
2022/01/06 01:02:34;;;;;;;19.00;4.32;;;5.10;99.90;;;;;;4942862;28;20045;-64
2022/01/06 01:05:00;;;;;;;19.13;4.13;;;5.10;99.90;;;;;;4966209;28;20336;-63
2022/01/06 01:07:26;;;;;;;13.57;2.40;;;5.00;99.90;;;;;;4964595;28;20046;-63
2022/01/06 01:09:51;;;;;;;16.42;2.85;;;5.00;99.90;;;;;;4962019;28;20045;-64
2022/01/06 01:12:17;;;;;;;17.92;3.25;;;5.00;99.90;;;;;;4975572;28;20046;-64
2022/01/06 01:17:27;;;;;;;18.42;3.20;;;5.00;99.90;;;;;;4963130;28;20042;-64
2022/01/06 01:19:54;;;;;;;20.45;3.40;;;5.00;99.90;;;;;;4959590;28;20416;-63
2022/01/06 01:22:20;;;;;;;24.27;4.40;;;5.00;99.90;;;;;;4958298;28;22182;-62
2022/01/06 01:24:45;;;;;;;15.70;3.08;;;4.90;99.90;;;;;;4962052;28;20030;-62
2022/01/06 01:27:11;;;;;;;22.73;3.38;;;4.90;99.90;;;;;;4963662;28;20034;-63
2022/01/06 01:29:45;;;;;;;18.30;4.55;;;4.90;99.90;;;;;;4969177;28;20039;-65
2022/01/06 01:32:11;;;;;;;18.05;2.97;;;4.90;99.90;;;;;;4968226;28;20046;-65
2022/01/06 01:34:38;;;;;;;14.60;3.53;;;4.80;99.90;;;;;;4976752;28;20393;-64
2022/01/06 01:37:04;;;;;;;19.58;3.75;;;4.90;99.90;;;;;;4956495;28;20551;-64
2022/01/06 01:39:30;;;;;;;17.30;3.33;;;4.80;99.90;;;;;;4985112;23;20041;-57
2022/01/06 01:41:56;;;;;;;14.60;2.50;;;4.80;99.90;;;;;;5017709;28;20280;-57
2022/01/06 01:44:22;;;;;;;15.32;2.83;;;4.80;99.90;;;;;;5019310;28;20044;-57
2022/01/06 01:47:02;;;;;;;16.88;3.40;;;4.80;99.90;;;;;;5019274;28;20392;-59
2022/01/06 01:49:33;;;;;;;20.98;2.95;;;4.80;99.90;;;;;;5006018;28;20049;-59
2022/01/06 01:51:59;;;;;;;15.02;2.97;;;4.80;99.90;;;;;;5017963;28;20042;-58
2022/01/06 01:54:25;;;;;;;18.55;4.55;;;4.80;99.90;;;;;;4990507;28;20376;-57
2022/01/06 01:56:51;;;;;;;16.17;2.75;;;4.80;99.90;;;;;;4987737;28;20179;-59
2022/01/06 01:59:17;;;;;;;20.02;3.58;;;4.80;99.90;;;;;;4999979;28;20041;-57
2022/01/06 02:01:43;;;;;;;18.23;3.03;;;4.80;99.90;;;;;;5022221;28;20041;-59
2022/01/06 02:04:09;;;;;;;21.20;4.25;;;4.80;99.90;;;;;;4985873;28;20041;-58
2022/01/06 02:06:35;;;;;;;13.63;2.70;;;4.70;99.90;;;;;;4999381;28;20068;-59
2022/01/06 02:09:01;;;;;;;13.48;2.80;;;4.70;99.90;;;;;;5021239;28;20380;-59
2022/01/06 02:11:27;;;;;;;17.85;3.10;;;4.70;99.90;;;;;;5017167;28;20037;-57
2022/01/06 02:13:55;;;;;;;16.10;2.80;;;4.60;99.90;;;;;;5023054;28;20483;-58
2022/01/06 02:16:22;;;;;;;17.58;2.88;;;4.60;99.90;;;;;;5002869;28;20049;-59
2022/01/06 02:18:49;;;;;;;19.33;3.65;;;4.60;99.90;;;;;;5021841;28;20038;-58
2022/01/06 02:21:15;;;;;;;14.60;2.53;;;4.60;99.90;;;;;;5021621;28;20130;-57
2022/01/06 02:23:41;;;;;;;16.13;2.88;;;4.60;99.90;;;;;;5021978;28;20037;-59
2022/01/06 02:26:07;;;;;;;15.07;2.70;;;4.60;99.90;;;;;;5016802;28;20052;-58
2022/01/06 02:28:33;;;;;;;30.13;4.25;;;4.60;99.90;;;;;;5017600;28;20042;-59
2022/01/06 02:30:59;;;;;;;20.88;3.90;;;4.60;99.90;;;;;;5015765;28;20029;-59
2022/01/06 02:33:25;;;;;;;18.05;4.20;;;4.50;99.90;;;;;;5017168;28;20030;-58
2022/01/06 02:35:54;;;;;;;19.75;3.00;;;4.50;99.90;;;;;;5007478;28;20136;-58
2022/01/06 02:38:21;;;;;;;17.17;3.35;;;4.50;99.90;;;;;;5020580;28;20091;-59
2022/01/06 02:40:47;;;;;;;12.88;2.65;;;4.50;99.90;;;;;;5006275;28;20060;-58
2022/01/06 02:43:16;;;;;;;17.65;3.47;;;4.50;99.90;;;;;;5003746;28;20145;-58
2022/01/06 02:45:42;;;;;;;15.32;3.42;;;4.50;99.90;;;;;;5019629;28;20472;-57
2022/01/06 02:48:11;;;;;;;18.10;3.47;;;4.50;99.90;;;;;;5003576;28;20095;-59
2022/01/06 02:50:38;;;;;;;18.98;3.20;;;4.50;99.90;;;;;;5017305;28;20064;-58
2022/01/06 02:53:06;;;;;;;19.48;3.20;;;4.50;99.90;;;;;;5019380;28;20044;-57
2022/01/06 02:55:32;;;;;;;16.45;3.00;;;4.50;99.90;;;;;;5018710;28;20402;-58
2022/01/06 02:57:58;;;;;;;17.73;3.65;;;4.40;99.90;;;;;;5019671;28;20037;-58
2022/01/06 03:00:24;;;;;;;12.57;2.65;;;4.40;99.90;;;;;;5019338;28;20091;-58
2022/01/06 03:02:49;;;;;;;12.90;3.15;;;4.40;99.90;;;;;;5017941;28;20509;-58
2022/01/06 03:05:17;;;;;;;16.67;2.95;;;4.30;99.90;;;;;;5016349;28;20083;-57
2022/01/06 03:07:44;;;;;;;19.67;4.22;;;4.30;99.90;;;;;;5007082;28;20049;-59
2022/01/06 03:10:13;;;;;;;19.10;3.35;;;4.30;99.90;;;;;;4983828;28;20471;-58
2022/01/06 03:12:39;;;;;;;12.90;2.85;;;4.20;99.90;;;;;;5014677;28;20044;-59
2022/01/06 03:15:17;;;;;;;19.95;4.50;;;4.20;99.90;;;;;;5014697;28;20080;-58
2022/01/06 03:17:45;;;;;;;12.82;2.75;;;4.20;99.90;;;;;;5017411;28;20044;-58
2022/01/06 03:20:13;;;;;;;19.58;3.03;;;4.20;99.90;;;;;;5002306;28;20045;-58
2022/01/06 03:22:39;;;;;;;22.10;2.65;;;4.20;99.90;;;;;;5007529;28;20048;-58
2022/01/06 03:25:06;;;;;;;15.23;3.08;;;4.20;99.90;;;;;;5009946;28;20037;-58
2022/01/06 03:27:32;;;;;;;12.30;2.33;;;4.10;99.90;;;;;;5022832;28;20059;-58
2022/01/06 03:29:58;;;;;;;16.65;4.03;;;4.10;99.90;;;;;;5010251;28;20037;-58
2022/01/06 03:32:24;;;;;;;15.25;3.40;;;4.10;99.90;;;;;;5014885;28;20037;-59
2022/01/06 03:34:50;;;;;;;24.40;3.63;;;4.00;99.90;;;;;;5002070;28;20142;-57
2022/01/06 03:37:16;;;;;;;19.42;3.80;;;4.00;99.90;;;;;;5021213;28;20037;-58
2022/01/06 03:39:43;;;;;;;23.00;3.70;;;4.00;99.90;;;;;;5016659;28;20144;-59
2022/01/06 03:42:11;;;;;;;21.65;3.55;;;4.00;99.90;;;;;;5020137;28;20096;-58
2022/01/06 03:44:37;;;;;;;16.77;3.10;;;4.00;99.90;;;;;;5015240;28;20542;-59
2022/01/06 03:47:03;;;;;;;20.80;3.30;;;3.90;99.90;;;;;;5004184;28;20527;-59
2022/01/06 03:49:29;;;;;;;19.63;4.22;;;3.90;99.90;;;;;;5017808;28;20033;-59
2022/01/06 03:51:55;;;;;;;20.33;3.75;;;3.90;99.90;;;;;;5015654;28;20044;-59
2022/01/06 03:54:21;;;;;;;17.45;4.35;;;3.90;99.90;;;;;;5018142;28;20056;-58
2022/01/06 03:56:48;;;;;;;20.38;3.30;;;3.90;99.90;;;;;;5018773;28;20033;-57
2022/01/06 03:59:16;;;;;;;17.75;3.05;;;3.80;99.90;;;;;;5022559;28;20053;-58
2022/01/06 04:01:42;;;;;;;15.73;2.80;;;3.80;99.90;;;;;;5015063;28;20489;-57
2022/01/06 04:04:08;;;;;;;13.48;2.03;;;3.70;99.90;;;;;;5016479;28;20341;-57
2022/01/06 04:06:34;;;;;;;13.48;2.70;;;3.70;99.90;;;;;;5014336;28;20033;-58
2022/01/06 04:08:59;;;;;;;16.20;2.63;;;3.60;99.90;;;;;;4986419;28;20049;-59
2022/01/06 04:11:25;;;;;;;22.65;3.63;;;3.50;99.90;;;;;;5003571;28;20041;-58
2022/01/06 04:13:51;;;;;;;13.70;3.67;;;3.50;99.90;;;;;;4999897;28;20495;-58
2022/01/06 04:16:17;;;;;;;11.63;2.45;;;3.40;99.90;;;;;;5004814;28;20451;-59
2022/01/06 04:18:44;;;;;;;15.52;3.35;;;3.40;99.90;;;;;;5007214;28;20048;-58
2022/01/06 04:21:10;;;;;;;16.48;2.28;;;3.30;99.90;;;;;;5011652;28;20107;-58
2022/01/06 04:23:36;;;;;;;16.95;2.83;;;3.20;99.90;;;;;;5016131;28;20052;-58
2022/01/06 04:26:02;;;;;;;16.75;2.88;;;3.20;99.90;;;;;;5017713;28;20034;-58
2022/01/06 04:28:28;;;;;;;8.38;1.85;;;3.10;99.90;;;;;;5017723;28;20183;-59
2022/01/06 04:30:53;;;;;;;13.75;2.55;;;3.10;99.90;;;;;;5016389;28;20603;-59
2022/01/06 04:33:19;;;;;;;16.50;2.30;;;3.00;99.90;;;;;;4998124;28;20423;-59
2022/01/06 04:35:45;;;;;;;20.67;3.78;;;3.00;99.90;;;;;;5012238;28;20034;-58
2022/01/06 04:38:11;;;;;;;15.30;2.60;;;3.00;99.90;;;;;;5013760;28;20049;-58
2022/01/06 04:40:37;;;;;;;11.38;2.20;;;2.90;99.90;;;;;;5017511;28;20400;-57
2022/01/06 04:43:02;;;;;;;12.15;2.22;;;2.80;99.90;;;;;;4998932;28;20176;-59
2022/01/06 04:45:28;;;;;;;12.80;2.55;;;2.70;99.90;;;;;;5001421;28;20087;-59
2022/01/06 04:47:54;;;;;;;17.05;3.10;;;2.70;99.90;;;;;;5014993;28;20450;-58
2022/01/06 04:50:20;;;;;;;20.33;3.20;;;2.70;99.90;;;;;;5017814;28;20049;-58
2022/01/06 04:52:45;;;;;;;10.48;2.35;;;2.60;99.90;;;;;;5016074;28;20049;-58
2022/01/06 04:55:11;;;;;;;13.55;2.67;;;2.60;99.90;;;;;;4997790;28;20081;-58
2022/01/06 04:57:37;;;;;;;11.43;2.22;;;2.60;99.90;;;;;;5021469;28;20045;-58
2022/01/06 05:00:05;;;;;;;17.75;3.20;;;2.50;99.90;;;;;;5018178;28;20471;-59
2022/01/06 05:02:31;;;;;;;13.32;2.25;;;2.50;99.90;;;;;;5017907;28;20045;-59
2022/01/06 05:04:56;;;;;;;12.23;2.38;;;2.40;99.90;;;;;;5004123;28;20504;-58
2022/01/06 05:07:22;;;;;;;14.60;3.30;;;2.40;99.90;;;;;;4997105;28;20429;-59
2022/01/06 05:09:48;;;;;;;13.68;2.40;;;2.30;99.90;;;;;;5023849;28;20044;-58
2022/01/06 05:12:14;;;;;;;14.43;2.47;;;2.30;99.90;;;;;;4997645;28;20041;-58
2022/01/06 05:14:40;;;;;;;18.20;2.75;;;2.30;99.90;;;;;;5013994;28;20068;-59
2022/01/06 05:17:07;;;;;;;15.45;3.00;;;2.20;99.90;;;;;;5013982;28;20037;-58
2022/01/06 05:19:32;;;;;;;16.02;3.05;;;2.20;99.90;;;;;;4987911;28;20057;-58
2022/01/06 05:21:59;;;;;;;22.05;4.18;;;2.20;99.90;;;;;;5012545;28;20037;-59
2022/01/06 05:24:25;;;;;;;14.10;3.47;;;2.20;99.90;;;;;;5000659;28;20050;-58
2022/01/06 05:26:54;;;;;;;16.77;2.42;;;2.20;99.90;;;;;;5001276;28;20034;-58
2022/01/06 05:29:20;;;;;;;20.08;2.97;;;2.20;99.90;;;;;;5013207;28;20149;-57
2022/01/06 05:31:46;;;;;;;14.82;2.58;;;2.20;99.90;;;;;;5017160;28;20136;-58
2022/01/06 05:34:11;;;;;;;17.98;3.67;;;2.10;99.90;;;;;;5014860;28;20045;-58
2022/01/06 05:36:38;;;;;;;13.95;2.53;;;2.10;99.90;;;;;;5016920;28;20053;-58
2022/01/06 05:39:04;;;;;;;15.52;3.03;;;2.10;99.90;;;;;;5005573;28;20051;-58
2022/01/06 05:41:29;;;;;;;17.33;3.08;;;2.10;99.90;;;;;;5001460;28;20037;-57
2022/01/06 05:43:55;;;;;;;20.38;3.10;;;2.00;99.90;;;;;;5006189;28;20423;-57
2022/01/06 05:46:21;;;;;;;18.38;3.97;;;1.90;99.90;;;;;;5017219;28;20495;-58
2022/01/06 05:48:47;;;;;;;13.07;2.92;;;1.90;99.90;;;;;;5019196;28;20029;-58
2022/01/06 05:51:13;;;;;;;16.55;3.28;;;1.80;99.90;;;;;;5024152;28;20041;-59
2022/01/06 05:53:39;;;;;;;12.85;2.70;;;1.90;99.90;;;;;;5016884;28;20040;-61
2022/01/06 05:56:05;;;;;;;18.25;2.90;;;1.80;99.90;;;;;;5020959;28;20053;-62
2022/01/06 05:58:31;;;;;;;13.68;3.20;;;1.80;99.90;;;;;;5004437;28;20499;-62
2022/01/06 06:00:57;;;;;;;16.73;4.10;;;1.80;99.90;;;;;;5001486;28;20053;-61
2022/01/06 06:03:27;;;;;;;17.55;2.92;;;1.70;99.90;;;;;;4996978;28;20717;-60
2022/01/06 06:05:53;;;;;;;15.70;2.50;;;1.70;99.90;;;;;;5019990;28;20120;-62
2022/01/06 06:08:19;;;;;;;18.60;2.03;;;1.70;99.90;;;;;;5022128;28;20045;-60
2022/01/06 06:10:45;;;;;;;16.15;2.60;;;1.70;99.90;;;;;;5021252;28;20594;-59
2022/01/06 06:13:10;;;;;;;14.52;2.30;;;1.60;99.90;;;;;;5023529;28;20065;-62
2022/01/06 06:15:36;;;;;;;13.05;2.97;;;1.60;99.90;;;;;;5004738;28;20036;-59
2022/01/06 06:18:03;;;;;;;16.83;2.45;;;1.60;99.90;;;;;;5003688;28;20077;-61
2022/01/06 06:20:29;;;;;;;18.08;3.40;;;1.60;99.90;;;;;;5006353;28;20049;-62
2022/01/06 06:22:55;;;;;;;15.63;2.72;;;1.50;99.90;;;;;;5018632;28;20462;-60
2022/01/06 06:25:21;;;;;;;14.88;3.03;;;1.50;99.90;;;;;;5025248;28;20409;-60
2022/01/06 06:27:47;;;;;;;15.43;3.13;;;1.50;99.90;;;;;;5002739;28;20056;-60
2022/01/06 06:30:13;;;;;;;14.40;3.15;;;1.50;99.90;;;;;;5001897;28;20243;-61
2022/01/06 06:32:38;;;;;;;19.20;3.75;;;1.40;99.90;;;;;;5005581;28;20037;-60
2022/01/06 06:35:05;;;;;;;12.73;2.13;;;1.40;99.90;;;;;;5019695;28;20508;-63
2022/01/06 06:37:31;;;;;;;14.70;2.90;;;1.40;99.90;;;;;;5019625;28;20543;-61
2022/01/06 06:39:57;;;;;;;14.82;3.65;;;1.40;99.90;;;;;;5020430;28;20116;-61
2022/01/06 06:42:27;;;;;;;12.57;2.28;;;1.40;99.90;;;;;;5021239;28;20050;-61
2022/01/06 06:44:54;;;;;;;11.05;2.83;;;1.30;99.90;;;;;;5021469;28;20526;-60
2022/01/06 06:47:19;;;;;;;21.75;4.22;;;1.30;99.90;;;;;;5015189;28;20036;-61
2022/01/06 06:49:45;;;;;;;12.88;2.92;;;1.30;99.90;;;;;;5016046;28;20495;-62
2022/01/06 06:52:11;;;;;;;13.30;2.85;;;1.30;99.90;;;;;;5002712;28;20052;-62
2022/01/06 06:54:37;;;;;;;15.18;2.72;;;1.20;99.90;;;;;;5020603;28;20029;-64
2022/01/06 06:57:04;;;;;;;14.65;2.95;;;1.20;99.90;;;;;;5020097;28;20057;-62
2022/01/06 06:59:29;;;;;;;24.63;5.35;;;1.20;99.90;;;;;;5000801;28;20492;-61
2022/01/06 07:01:55;;;;;;;16.63;3.53;;;1.20;99.90;;;;;;5016604;28;20237;-61
2022/01/06 07:04:21;;;;;;;8.75;2.38;;;1.20;99.90;;;;;;5004499;28;20041;-60
2022/01/06 07:06:47;;;;;;;16.90;2.92;;;1.20;99.90;;;;;;5001757;28;20420;-61
2022/01/06 07:09:13;;;;;;;21.38;4.53;;;1.20;99.90;;;;;;5018826;28;20045;-58
2022/01/06 07:11:38;;;;;;;20.23;2.90;;;1.20;99.90;;;;;;5001493;28;21170;-61
2022/01/06 07:14:04;;;;;;;18.48;4.18;;;1.20;99.90;;;;;;5019508;28;20034;-61
2022/01/06 07:16:30;;;;;;;17.75;2.95;;;1.20;99.90;;;;;;5002777;28;20542;-59
2022/01/06 07:18:56;;;;;;;14.77;3.33;;;1.20;99.90;;;;;;5019026;28;20042;-61
2022/01/06 07:21:21;;;;;;;16.25;2.85;;;1.20;99.90;;;;;;5013445;28;20049;-59
2022/01/06 07:23:47;;;;;;;14.80;2.67;;;1.20;99.90;;;;;;4997676;28;20044;-61
2022/01/06 07:26:13;;;;;;;11.80;4.32;;;1.20;99.90;;;;;;5010580;28;20041;-61
2022/01/06 07:28:39;;;;;;;21.85;3.78;;;1.20;99.90;;;;;;5013734;28;20272;-60
2022/01/06 07:31:05;;;;;;;10.98;2.83;;;1.20;99.90;;;;;;5003528;28;20044;-60
2022/01/06 07:33:31;;;;;;;10.63;2.67;;;1.20;99.90;;;;;;4998827;28;20044;-63
2022/01/06 07:35:57;;;;;;;17.45;3.90;;;1.20;99.90;;;;;;5017393;28;20064;-64
2022/01/06 07:38:24;;;;;;;12.25;2.75;;;1.20;99.90;;;;;;5016613;28;20392;-60
2022/01/06 07:40:50;;;;;;;22.80;3.63;;;1.20;99.90;;;;;;5012126;28;20442;-58
2022/01/06 07:43:15;;;;;;;15.27;2.75;;;1.20;99.90;;;;;;5003065;28;20100;-57
2022/01/06 07:45:41;;;;;;;18.17;3.33;;;1.20;99.90;;;;;;5015631;28;20683;-62
2022/01/06 07:48:16;;;;;;;16.48;3.58;;;1.10;99.90;;;;;;5004527;28;20530;-62
2022/01/06 07:50:43;;;;;;;22.60;4.13;;;1.10;99.90;;;;;;4992115;28;20041;-65
2022/01/06 07:53:08;;;;;;;15.50;3.80;;;1.20;99.90;;;;;;5017956;28;20108;-61
2022/01/06 07:55:34;;;;;;;15.75;3.10;;;1.20;99.90;;;;;;4997922;28;20136;-60
2022/01/06 07:58:00;;;;;;;9.50;2.53;;;1.20;99.90;;;;;;5016623;28;20049;-60
2022/01/06 08:00:26;;;;;;;14.85;3.45;;;1.30;99.90;;;;;;4984834;28;20072;-61
2022/01/06 08:02:52;;;;;;;29.67;4.63;;;1.30;99.90;;;;;;5012797;28;20519;-59
2022/01/06 08:05:24;;;;;;;22.75;4.70;;;1.30;99.90;;;;;;4990261;28;20047;-60
2022/01/06 08:07:50;;;;;;;22.60;3.88;;;1.30;99.90;;;;;;5015880;28;20034;-60
2022/01/06 08:10:16;;;;;;;18.58;3.38;;;1.30;99.90;;;;;;5014389;28;20044;-60
2022/01/06 08:12:42;;;;;;;17.08;3.70;;;1.30;99.90;;;;;;5018159;28;20033;-60
2022/01/06 08:15:09;;;;;;;25.75;7.65;;;1.30;99.90;;;;;;4977577;28;20096;-61
2022/01/06 08:17:36;;;;;;;22.95;6.32;;;1.30;99.90;;;;;;4984167;28;20138;-60
2022/01/06 08:20:06;;;;;;;19.05;4.63;;;1.40;99.90;;;;;;5005740;28;20088;-60
2022/01/06 08:25:00;;;;;;;18.55;3.97;;;1.40;99.90;;;;;;5010029;28;20042;-52
2022/01/06 08:27:25;;;;;;;24.52;6.68;;;1.40;99.90;;;;;;5011913;28;20471;-55
2022/01/06 08:29:52;;;;;;;22.35;5.40;;;1.40;99.90;;;;;;4998030;28;20045;-58
2022/01/06 08:32:19;;;;;;;20.52;4.40;;;1.40;99.90;;;;;;5025238;28;20064;-55
2022/01/06 08:34:45;;;;;;;14.02;4.00;;;1.40;99.90;;;;;;4963430;28;20100;-52
2022/01/06 08:37:11;;;;;;;22.83;4.03;;;1.50;99.90;;;;;;5009712;28;20057;-52
2022/01/06 08:39:36;;;;;;;17.05;3.75;;;1.50;99.90;;;;;;5012117;28;20053;-55
2022/01/06 08:42:03;;;;;;;16.35;3.30;;;1.50;99.90;;;;;;5007084;28;20480;-56
2022/01/06 08:44:29;;;;;;;19.75;4.15;;;1.50;99.90;;;;;;5015609;28;20069;-52
2022/01/06 08:46:56;;;;;;;21.58;4.15;;;1.60;99.90;;;;;;5021053;28;20486;-57
2022/01/06 08:49:22;;;;;;;18.13;3.67;;;1.60;99.90;;;;;;5018580;28;20056;-58
2022/01/06 08:51:48;;;;;;;18.23;4.15;;;1.70;99.90;;;;;;5035360;28;20258;-54
2022/01/06 08:54:14;;;;;;;20.92;5.20;;;1.70;99.90;;;;;;5016859;28;20046;-52
2022/01/06 08:56:40;;;;;;;24.98;4.95;;;1.70;99.90;;;;;;5003842;28;20275;-53
2022/01/06 08:59:05;;;;;;;12.18;2.78;;;1.80;99.90;;;;;;5016327;28;20126;-57
2022/01/06 09:01:32;;;;;;;23.67;3.80;;;1.80;99.90;;;;;;5009924;28;20079;-58
2022/01/06 09:03:58;;;;;;;18.55;4.53;;;1.80;99.90;;;;;;5013773;28;20057;-55
2022/01/06 09:06:24;;;;;;;27.80;5.03;;;1.90;99.90;;;;;;5010964;28;20033;-52
2022/01/06 09:08:50;;;;;;;18.25;3.72;;;1.90;99.90;;;;;;5001074;28;20048;-55
2022/01/06 09:11:16;;;;;;;17.40;3.38;;;2.00;99.90;;;;;;5033196;28;20050;-58
2022/01/06 09:13:42;;;;;;;22.85;3.85;;;2.00;99.90;;;;;;5014802;28;20068;-58
2022/01/06 09:16:08;;;;;;;24.83;4.15;;;2.00;99.90;;;;;;5002229;28;20065;-54
2022/01/06 09:18:38;;;;;;;9.40;3.10;;;2.10;99.90;;;;;;5013648;28;20608;-56
2022/01/06 09:21:05;;;;;;;19.58;3.95;;;2.10;99.90;;;;;;5011282;28;20047;-54
2022/01/06 09:23:31;;;;;;;18.80;3.78;;;2.20;99.90;;;;;;5024706;28;20188;-57
2022/01/06 09:25:57;;;;;;;16.92;3.75;;;2.20;99.90;;;;;;5009374;28;20033;-55
2022/01/06 09:28:23;;;;;;;17.88;3.95;;;2.30;99.90;;;;;;5020357;28;20060;-57
2022/01/06 09:30:52;;;;;;;19.38;4.60;;;2.30;99.90;;;;;;5022861;28;20049;-57
2022/01/06 09:33:18;;;;;;;15.13;3.70;;;2.30;99.90;;;;;;4980825;28;20466;-57
2022/01/06 09:35:49;;;;;;;14.20;3.45;;;2.40;99.90;;;;;;5004533;28;20575;-55
2022/01/06 09:38:16;;;;;;;13.38;4.07;;;2.40;99.90;;;;;;5013564;28;20080;-53
2022/01/06 09:40:44;;;;;;;18.08;3.50;;;2.50;99.90;;;;;;5015710;28;20053;-56
2022/01/06 09:43:12;;;;;;;20.75;3.63;;;2.50;99.90;;;;;;5012036;28;20053;-56
2022/01/06 09:45:39;;;;;;;19.02;3.17;;;2.60;99.90;;;;;;5012149;28;20596;-57
2022/01/06 09:48:06;;;;;;;18.45;4.38;;;2.60;99.90;;;;;;4994054;28;20083;-59
2022/01/06 09:50:32;;;;;;;15.05;3.53;;;2.70;99.90;;;;;;4993527;28;20041;-56
2022/01/06 09:52:58;;;;;;;16.65;3.08;;;2.80;99.90;;;;;;4995963;28;20042;-57
2022/01/06 09:55:24;;;;;;;16.70;3.22;;;2.90;99.90;;;;;;5004610;28;20598;-58
2022/01/06 09:58:00;;;;;;;15.43;3.45;;;3.00;99.90;;;;;;4991503;28;20072;-57
2022/01/06 10:00:28;;;;;;;14.93;2.97;;;3.10;99.90;;;;;;5030621;28;20037;-57
2022/01/06 10:02:56;;;;;;;17.85;3.72;;;3.10;99.90;;;;;;4999589;28;20453;-53
2022/01/06 10:05:23;;;;;;;14.27;3.13;;;3.30;99.90;;;;;;5013935;28;20069;-55
2022/01/06 10:07:49;;;;;;;24.85;4.22;;;3.40;99.90;;;;;;5010584;28;20697;-59
2022/01/06 10:10:16;;;;;;;27.33;3.55;;;3.50;99.90;;;;;;5023198;28;20128;-55
2022/01/06 10:12:43;;;;;;;15.55;2.90;;;3.50;99.90;;;;;;5000342;28;20124;-58
2022/01/06 10:15:17;;;;;;;17.42;3.45;;;3.60;99.90;;;;;;4981937;28;20128;-54
2022/01/06 10:17:43;;;;;;;21.73;3.97;;;3.80;99.90;;;;;;5008533;28;20045;-55
2022/01/06 10:20:15;;;;;;;14.75;3.63;;;3.90;99.90;;;;;;5017854;28;20041;-55
2022/01/06 10:22:49;;;;;;;22.70;3.47;;;4.00;99.90;;;;;;5008211;28;20038;-56
2022/01/06 10:25:17;;;;;;;16.35;3.00;;;4.10;99.90;;;;;;5004294;28;20040;-56
2022/01/06 10:27:44;;;;;;;23.08;3.88;;;4.20;99.90;;;;;;5007904;28;20081;-58
2022/01/06 10:30:11;;;;;;;16.83;3.35;;;4.30;99.90;;;;;;4996438;28;20264;-55
2022/01/06 10:32:38;;;;;;;22.85;4.47;;;4.40;99.90;;;;;;5019208;28;20038;-57
2022/01/06 10:35:05;;;;;;;14.82;3.70;;;4.50;99.90;;;;;;5015614;28;20077;-56
2022/01/06 10:37:31;;;;;;;19.35;3.25;;;4.60;99.90;;;;;;4997726;28;20041;-57
2022/01/06 10:39:59;;;;;;;18.02;4.18;;;4.80;99.90;;;;;;5011631;28;20041;-53
2022/01/06 10:42:28;;;;;;;19.55;2.88;;;4.90;99.90;;;;;;5013956;28;20814;-54
2022/01/06 10:45:03;;;;;;;20.55;4.90;;;5.00;99.90;;;;;;5016926;28;20084;-54
2022/01/06 10:47:30;;;;;;;15.90;3.35;;;5.10;99.90;;;;;;5015016;28;20123;-57
2022/01/06 10:50:10;;;;;;;19.83;3.60;;;5.30;99.90;;;;;;4999602;28;20037;-56
2022/01/06 10:52:38;;;;;;;21.42;4.70;;;5.40;99.90;;;;;;5032250;28;20106;-51
2022/01/06 10:55:19;;;;;;;18.67;3.10;;;5.50;99.90;;;;;;5010815;28;20111;-55
2022/01/06 10:58:04;;;;;;;15.63;3.67;;;5.60;99.90;;;;;;5010959;28;20373;-59
2022/01/06 11:00:37;;;;;;;13.32;3.47;;;5.70;99.90;;;;;;5011871;28;20056;-52
2022/01/06 11:03:10;;;;;;;15.63;3.07;;;5.80;99.90;;;;;;5017951;28;20073;-54
2022/01/06 11:05:41;;;;;;;15.45;2.97;;;5.90;99.90;;;;;;4998770;28;20328;-57
2022/01/06 11:08:08;;;;;;;19.17;3.30;;;6.00;99.90;;;;;;5032503;28;20095;-55
2022/01/06 11:10:45;;;;;;;24.67;4.28;;;6.00;99.90;;;;;;4997866;28;20045;-53
2022/01/06 11:13:11;;;;;;;19.00;2.40;;;6.10;99.90;;;;;;5027973;28;20049;-51
2022/01/06 11:15:37;;;;;;;17.02;2.65;;;6.20;99.90;;;;;;5006473;28;20048;-59
2022/01/06 11:18:05;;;;;;;15.57;2.97;;;6.30;99.90;;;;;;5021221;28;20107;-56
2022/01/06 11:20:31;;;;;;;13.93;2.70;;;6.40;99.90;;;;;;5021159;28;20041;-54
2022/01/06 11:22:58;;;;;;;16.08;4.13;;;6.40;99.90;;;;;;5013325;28;20504;-52
2022/01/06 11:25:38;;;;;;;20.38;3.47;;;6.40;99.90;;;;;;5025875;28;20037;-56
2022/01/06 11:28:12;;;;;;;17.23;3.33;;;6.40;99.90;;;;;;5012444;28;20046;-59
2022/01/06 11:30:46;;;;;;;13.63;2.55;;;6.60;99.90;;;;;;5026031;28;20045;-51
2022/01/06 11:33:15;;;;;;;;;;;6.60;99.90;;;;;;5002553;28;20136;-53
2022/01/06 11:35:51;;;;;;;13.20;2.75;;;6.70;99.90;;;;;;5010328;28;19943;-56
2022/01/06 11:38:19;;;;;;;14.77;2.90;;;6.80;99.90;;;;;;4996622;28;20044;-57
2022/01/06 11:40:47;;;;;;;15.80;4.30;;;6.90;99.90;;;;;;5030765;28;20057;-56
2022/01/06 11:43:13;;;;;;;18.55;3.55;;;6.90;99.90;;;;;;4998926;28;20045;-54
2022/01/06 11:45:39;;;;;;;11.40;3.15;;;6.70;99.90;;;;;;4991531;28;20424;-58
2022/01/06 11:48:08;;;;;;;8.85;1.83;;;6.70;99.90;;;;;;5011280;28;20062;-60
2022/01/06 11:50:39;;;;;;;19.70;3.05;;;6.70;99.90;;;;;;5029595;28;20037;-58
2022/01/06 11:53:06;;;;;;;13.00;2.63;;;6.80;99.90;;;;;;4990186;28;20327;-58
2022/01/06 11:55:35;;;;;;;8.55;2.20;;;6.80;99.90;;;;;;4993866;28;20052;-55
2022/01/06 11:58:12;;;;;;;11.85;3.30;;;6.90;99.90;;;;;;5010364;28;20048;-55
2022/01/06 12:00:42;;;;;;;10.10;2.00;;;6.90;99.90;;;;;;5026387;28;20044;-60
2022/01/06 12:03:12;;;;;;;11.60;3.00;;;7.00;99.90;;;;;;5009698;28;20042;-56
2022/01/06 12:05:52;;;;;;;9.13;1.98;;;7.00;99.90;;;;;;5028227;28;20116;-59
2022/01/06 12:08:37;;;;;;;8.90;2.22;;;7.00;99.90;;;;;;5005576;28;20053;-56
2022/01/06 12:11:03;;;;;;;10.45;2.15;;;7.10;99.90;;;;;;5030045;28;20217;-57
2022/01/06 12:13:29;;;;;;;12.93;2.40;;;7.30;99.90;;;;;;5011273;28;20051;-57
2022/01/06 12:15:57;;;;;;;9.60;1.77;;;7.40;99.90;;;;;;5011461;28;20049;-57
2022/01/06 12:18:28;;;;;;;10.82;2.72;;;7.40;99.90;;;;;;5032905;28;20057;-55
2022/01/06 12:20:57;;;;;;;11.18;1.75;;;7.50;99.90;;;;;;5030162;28;20136;-55
2022/01/06 12:23:24;;;;;;;9.90;2.28;;;7.60;99.90;;;;;;4994947;28;20061;-57
2022/01/06 12:25:55;;;;;;;9.85;1.85;;;7.60;99.90;;;;;;4998302;28;20046;-59
2022/01/06 12:28:22;;;;;;;10.45;2.30;;;7.60;99.90;;;;;;4994763;28;20045;-56
2022/01/06 12:30:48;;;;;;;14.07;2.40;;;7.60;99.90;;;;;;5016702;28;20099;-57
2022/01/06 12:33:19;;;;;;;13.43;2.00;;;7.70;99.90;;;;;;5007957;28;21872;-56
2022/01/06 12:35:56;;;;;;;9.27;2.10;;;7.70;99.90;;;;;;4988907;28;20041;-58
2022/01/06 12:38:28;;;;;;;11.07;2.10;;;7.70;99.90;;;;;;5005687;28;20140;-59
2022/01/06 12:40:55;;;;;;;10.77;2.08;;;7.70;99.90;;;;;;5018403;28;20045;-57
2022/01/06 12:43:27;;;;;;;9.65;2.45;;;7.70;99.90;;;;;;5031404;28;20052;-56
2022/01/06 12:46:10;;;;;;;12.07;2.15;;;7.70;99.90;;;;;;4992058;28;20564;-58
2022/01/06 12:48:39;;;;;;;12.13;2.08;;;7.70;99.90;;;;;;5013497;28;20120;-54
2022/01/06 12:51:06;;;;;;;10.30;1.95;;;7.60;99.90;;;;;;5016034;28;20469;-56
2022/01/06 12:53:39;;;;;;;9.07;1.70;;;7.60;99.90;;;;;;5015889;28;20419;-57
2022/01/06 12:56:05;;;;;;;11.20;2.20;;;7.50;99.90;;;;;;5015811;28;20048;-57
2022/01/06 12:58:33;;;;;;;12.45;2.10;;;7.50;99.90;;;;;;5014609;28;20124;-53
2022/01/06 13:01:05;;;;;;;9.00;1.65;;;7.50;99.90;;;;;;5017111;28;20045;-53